Time;durP1;ratioP1;P1;durP2;ratioP2;P2;SDS_P1;SDS_P2;PMS_P1;PMS_P2;Temp;Humidity;BMP_temperature;BMP_pressure;BME280_temperature;BME280_humidity;BME280_pressure;Samples;Min_cycle;Max_cycle;Signal;HPM_P1;HPM_P2
2021/10/03 00:01:33;;;;;;;17.87;11.80;;;;;;;7.61;64.17;101864.31;1730377;80;21012;-62
2021/10/03 00:04:00;;;;;;;19.15;12.00;;;;;;;7.71;64.04;101866.54;1755713;79;21681;-63
2021/10/03 00:06:26;;;;;;;22.30;11.70;;;;;;;7.75;64.19;101874.20;1761327;79;21004;-62
2021/10/03 00:08:54;;;;;;;18.00;11.57;;;;;;;7.79;64.20;101877.53;1738896;80;21442;-63
2021/10/03 00:11:21;;;;;;;20.25;13.08;;;;;;;7.78;64.39;101871.89;1736721;80;21146;-62
2021/10/03 00:13:48;;;;;;;19.42;13.53;;;;;;;7.76;64.45;101872.42;1734905;80;21090;-62
2021/10/03 00:16:15;;;;;;;20.88;11.97;;;;;;;7.74;64.33;101872.96;1753360;80;21062;-62
2021/10/03 00:18:42;;;;;;;20.02;11.97;;;;;;;7.72;64.19;101870.87;1758294;80;21492;-62
2021/10/03 00:21:10;;;;;;;22.65;12.80;;;;;;;7.66;64.10;101872.45;1697029;82;21914;-62
2021/10/03 00:23:38;;;;;;;19.37;12.23;;;;;;;7.65;64.15;101874.22;1759012;79;21550;-62
2021/10/03 00:26:05;;;;;;;21.33;13.58;;;;;;;7.63;64.31;101874.72;1733688;79;21181;-62
2021/10/03 00:28:33;;;;;;;19.40;11.30;;;;;;;7.60;64.41;101874.88;1745594;80;21070;-62
2021/10/03 00:30:59;;;;;;;16.40;11.95;;;;;;;7.56;64.42;101872.83;1757992;80;21478;-62
2021/10/03 00:33:26;;;;;;;18.12;11.75;;;;;;;7.50;64.32;101873.12;1756569;80;21055;-61
2021/10/03 00:35:53;;;;;;;17.55;12.03;;;;;;;7.41;64.42;101873.06;1762673;79;21048;-62
2021/10/03 00:38:19;;;;;;;20.27;12.70;;;;;;;7.39;64.51;101880.58;1759710;79;21570;-62
2021/10/03 00:40:46;;;;;;;21.07;11.38;;;;;;;7.47;64.30;101882.88;1754019;80;21007;-62
2021/10/03 00:43:12;;;;;;;17.52;11.88;;;;;;;7.50;64.18;101869.19;1756302;80;21004;-62
2021/10/03 00:45:41;;;;;;;18.85;11.40;;;;;;;7.50;64.31;101875.73;1761415;80;21066;-62
2021/10/03 00:48:08;;;;;;;15.98;11.00;;;;;;;7.49;64.32;101870.56;1759824;80;21090;-62
2021/10/03 00:50:35;;;;;;;20.23;11.78;;;;;;;7.48;64.34;101874.96;1753677;79;21537;-63
2021/10/03 00:53:02;;;;;;;17.35;11.70;;;;;;;7.48;64.28;101880.20;1758792;80;21114;-62
2021/10/03 00:55:29;;;;;;;19.35;11.65;;;;;;;7.46;64.30;101872.84;1754631;80;21526;-62
2021/10/03 00:57:56;;;;;;;21.10;12.90;;;;;;;7.43;64.30;101872.97;1767901;79;21043;-62
2021/10/03 01:00:26;;;;;;;18.65;12.37;;;;;;;7.37;64.19;101875.40;1763874;79;21086;-62
2021/10/03 01:02:53;;;;;;;22.70;13.10;;;;;;;7.31;64.24;101870.41;1755956;80;21024;-62
2021/10/03 01:05:20;;;;;;;17.20;11.68;;;;;;;7.25;64.28;101872.84;1756254;79;21043;-62
2021/10/03 01:07:46;;;;;;;22.15;12.07;;;;;;;7.18;64.65;101870.57;1759959;80;21545;-63
2021/10/03 01:10:19;;;;;;;20.60;12.58;;;;;;;7.15;64.93;101870.23;1754824;80;21139;-62
2021/10/03 01:12:45;;;;;;;17.42;11.85;;;;;;;7.15;64.97;101871.53;1743329;80;21173;-62
2021/10/03 01:15:11;;;;;;;20.50;11.60;;;;;;;7.24;64.91;101873.75;1756521;80;21078;-62
2021/10/03 01:17:39;;;;;;;21.40;11.97;;;;;;;7.29;64.79;101877.96;1755607;79;21109;-62
2021/10/03 01:20:08;;;;;;;20.10;12.03;;;;;;;7.33;64.88;101873.84;1760139;80;21142;-62
2021/10/03 01:22:37;;;;;;;18.07;12.40;;;;;;;7.37;65.16;101875.40;1758800;79;21107;-62
2021/10/03 01:25:06;;;;;;;24.18;13.72;;;;;;;7.37;65.25;101864.08;1737491;80;21066;-62
2021/10/03 01:27:36;;;;;;;18.67;12.70;;;;;;;7.34;65.34;101866.36;1755270;80;21030;-62
2021/10/03 01:30:05;;;;;;;17.20;13.00;;;;;;;7.33;65.38;101861.19;1756804;79;21446;-62
2021/10/03 01:32:31;;;;;;;20.02;13.70;;;;;;;7.30;65.16;101861.34;1758370;80;21063;-62
2021/10/03 01:34:58;;;;;;;19.45;11.70;;;;;;;7.28;64.99;101865.34;1759459;79;22830;-62
2021/10/03 01:39:54;;;;;;;17.48;11.05;;;;;;;7.23;64.84;101862.91;1856257;75;22680;-61
2021/10/03 01:42:21;;;;;;;19.77;13.22;;;;;;;7.11;64.68;101866.48;1809641;77;21077;-61
2021/10/03 01:44:47;;;;;;;20.70;12.58;;;;;;;7.07;64.68;101871.00;1796708;78;21038;-61
2021/10/03 01:47:14;;;;;;;23.07;12.70;;;;;;;7.02;64.95;101872.48;1818733;77;21585;-61
2021/10/03 01:49:40;;;;;;;16.10;11.53;;;;;;;6.97;65.19;101874.91;1813724;77;21058;-61
2021/10/03 01:52:07;;;;;;;16.37;10.80;;;;;;;6.97;65.13;101870.52;1809284;77;21138;-61
2021/10/03 01:54:34;;;;;;;18.67;11.55;;;;;;;7.04;65.10;101871.99;1798653;78;21438;-61
2021/10/03 01:57:02;;;;;;;17.60;11.63;;;;;;;7.12;64.89;101872.12;1794918;77;21192;-61
2021/10/03 01:59:28;;;;;;;16.37;11.20;;;;;;;7.14;64.73;101873.75;1817272;77;21472;-61
2021/10/03 02:01:57;;;;;;;18.92;12.00;;;;;;;7.13;64.86;101879.91;1815681;77;21056;-61
2021/10/03 02:04:25;;;;;;;17.05;12.30;;;;;;;7.11;64.79;101874.34;1815668;77;21042;-61
2021/10/03 02:06:55;;;;;;;17.65;11.00;;;;;;;7.07;64.97;101878.38;1820138;77;21097;-62
2021/10/03 02:09:24;;;;;;;17.25;11.68;;;;;;;7.05;64.97;101871.53;1816671;77;21556;-62
2021/10/03 02:11:53;;;;;;;15.68;10.95;;;;;;;7.03;64.87;101872.05;1789850;78;21070;-61
2021/10/03 02:14:27;;;;;;;17.45;10.43;;;;;;;7.02;64.70;101874.27;1812009;77;21089;-62
2021/10/03 02:16:54;;;;;;;16.48;10.43;;;;;;;7.00;64.49;101871.71;1803468;77;21480;-61
2021/10/03 02:19:20;;;;;;;17.27;11.33;;;;;;;6.97;64.55;101879.68;1803960;77;20977;-62
2021/10/03 02:21:48;;;;;;;21.95;12.88;;;;;;;6.95;64.42;101887.22;1813250;77;21227;-62
2021/10/03 02:24:15;;;;;;;17.42;12.65;;;;;;;6.86;64.62;101878.82;1805759;77;21560;-62
2021/10/03 02:26:42;;;;;;;17.40;11.88;;;;;;;6.86;64.72;101880.60;1817431;77;21455;-62
2021/10/03 02:29:09;;;;;;;18.50;11.40;;;;;;;6.90;64.60;101875.62;1797568;77;21050;-62
2021/10/03 02:31:36;;;;;;;18.10;11.57;;;;;;;6.95;64.51;101883.30;1808558;77;21163;-62
2021/10/03 02:34:02;;;;;;;18.57;12.82;;;;;;;6.96;64.48;101881.05;1799279;77;21054;-62
2021/10/03 02:36:29;;;;;;;19.17;12.18;;;;;;;6.93;64.61;101887.74;1820260;77;21054;-62
2021/10/03 02:38:56;;;;;;;18.02;11.60;;;;;;;6.88;64.86;101886.15;1786543;77;21052;-61
2021/10/03 02:41:23;;;;;;;19.50;11.90;;;;;;;6.85;64.87;101880.19;1814433;77;21086;-61
2021/10/03 02:43:53;;;;;;;17.80;11.30;;;;;;;6.82;64.92;101886.84;1795236;77;21112;-62
2021/10/03 02:46:20;;;;;;;19.75;13.18;;;;;;;6.78;64.70;101890.05;1814322;77;21129;-62
2021/10/03 02:48:51;;;;;;;17.37;10.80;;;;;;;6.73;64.75;101884.16;1814437;77;21066;-62
2021/10/03 02:51:21;;;;;;;19.37;12.78;;;;;;;6.67;64.96;101888.31;1809281;77;21061;-62
2021/10/03 02:53:48;;;;;;;20.52;12.07;;;;;;;6.63;64.91;101888.05;1792147;77;21033;-62
2021/10/03 02:56:16;;;;;;;17.80;11.85;;;;;;;6.57;64.92;101885.20;1791911;78;21097;-62
2021/10/03 02:58:43;;;;;;;16.65;10.45;;;;;;;6.51;65.06;101890.22;1800713;78;21058;-62
2021/10/03 03:01:09;;;;;;;14.47;10.18;;;;;;;6.51;65.01;101892.84;1793554;77;21065;-61
2021/10/03 03:03:37;;;;;;;15.93;11.12;;;;;;;6.63;64.82;101895.89;1817077;77;20987;-62
2021/10/03 03:06:05;;;;;;;17.87;12.03;;;;;;;6.70;64.77;101892.12;1812753;77;21002;-61
2021/10/03 03:08:32;;;;;;;16.90;11.28;;;;;;;6.76;64.82;101894.50;1813628;77;20931;-60
2021/10/03 03:10:59;;;;;;;17.62;11.85;;;;;;;6.76;64.91;101898.42;1804840;77;21150;-60
2021/10/03 03:13:25;;;;;;;17.75;12.03;;;;;;;6.74;64.93;101892.41;1809234;77;21031;-60
2021/10/03 03:15:52;;;;;;;19.02;11.90;;;;;;;6.72;64.94;101888.98;1806151;78;21497;-60
2021/10/03 03:18:20;;;;;;;15.65;10.90;;;;;;;6.71;64.94;101893.83;1814519;77;21027;-60
2021/10/03 03:20:47;;;;;;;14.78;10.38;;;;;;;6.68;64.83;101893.95;1795837;77;21143;-60
2021/10/03 03:23:14;;;;;;;17.05;10.90;;;;;;;6.64;64.70;101890.61;1795515;77;21043;-60
2021/10/03 03:25:40;;;;;;;19.65;11.73;;;;;;;6.60;64.52;101890.78;1813324;77;21051;-60
2021/10/03 03:28:07;;;;;;;16.75;10.55;;;;;;;6.54;64.41;101891.01;1796687;77;21184;-61
2021/10/03 03:30:35;;;;;;;17.60;10.90;;;;;;;6.44;64.22;101890.08;1812758;77;21093;-60
2021/10/03 03:33:01;;;;;;;19.55;12.53;;;;;;;6.38;64.26;101898.61;1820627;77;21044;-60
2021/10/03 03:35:29;;;;;;;17.95;12.10;;;;;;;6.31;64.54;101893.60;1816634;77;21438;-61
2021/10/03 03:37:56;;;;;;;14.95;11.08;;;;;;;6.32;64.69;101893.14;1814229;77;21021;-60
2021/10/03 03:40:22;;;;;;;16.60;11.03;;;;;;;6.38;64.73;101894.22;1813854;77;21485;-60
2021/10/03 03:42:49;;;;;;;17.82;11.45;;;;;;;6.45;64.74;101896.14;1790167;78;21081;-61
2021/10/03 03:45:16;;;;;;;23.07;12.55;;;;;;;6.48;64.81;101892.95;1820280;77;21066;-60
2021/10/03 03:47:42;;;;;;;20.77;13.03;;;;;;;6.52;64.91;101894.98;1816924;77;22993;-61
2021/10/03 03:50:12;;;;;;;20.43;12.58;;;;;;;6.54;65.24;101893.63;1798004;77;21033;-61
2021/10/03 03:52:40;;;;;;;21.95;13.10;;;;;;;6.55;65.10;101900.11;1818043;76;21163;-61
2021/10/03 03:55:08;;;;;;;19.07;12.75;;;;;;;6.54;65.24;101904.95;1818248;77;21112;-59
2021/10/03 03:57:35;;;;;;;18.12;12.03;;;;;;;6.51;65.25;101907.22;1808774;77;21081;-59
2021/10/03 04:00:03;;;;;;;17.42;12.45;;;;;;;6.45;65.38;101907.45;1811530;77;21141;-60
2021/10/03 04:02:31;;;;;;;20.55;12.13;;;;;;;6.40;65.46;101904.63;1806392;77;21550;-60
2021/10/03 04:04:58;;;;;;;18.52;12.70;;;;;;;6.34;65.69;101904.41;1809540;77;21156;-60
2021/10/03 04:07:24;;;;;;;16.00;11.88;;;;;;;6.32;65.77;101900.98;1809433;77;21101;-61
2021/10/03 04:09:50;;;;;;;16.37;10.85;;;;;;;6.29;65.75;101898.05;1787792;77;21438;-60
2021/10/03 04:12:17;;;;;;;17.95;11.63;;;;;;;6.33;65.59;101899.62;1806861;77;21117;-60
2021/10/03 04:14:44;;;;;;;19.45;11.40;;;;;;;6.44;65.20;101904.89;1805882;77;21295;-60
2021/10/03 04:17:10;;;;;;;16.82;11.25;;;;;;;6.50;64.94;101908.12;1810004;77;21054;-60
2021/10/03 04:19:36;;;;;;;15.88;10.63;;;;;;;6.55;64.81;101913.64;1815533;77;21059;-60
2021/10/03 04:22:03;;;;;;;19.17;11.85;;;;;;;6.51;64.79;101911.14;1809616;77;21532;-61
2021/10/03 04:24:30;;;;;;;21.62;12.05;;;;;;;6.49;64.66;101918.20;1814990;77;21115;-60
2021/10/03 04:26:56;;;;;;;17.00;11.68;;;;;;;6.46;64.60;101920.93;1808152;77;21032;-61
2021/10/03 04:29:23;;;;;;;19.42;12.68;;;;;;;6.42;64.69;101924.59;1819408;77;21103;-61
2021/10/03 04:31:50;;;;;;;20.35;12.88;;;;;;;6.37;64.73;101929.14;1793799;77;21092;-60
2021/10/03 04:34:16;;;;;;;18.35;11.78;;;;;;;6.32;64.96;101928.43;1810600;77;21088;-61
2021/10/03 04:36:42;;;;;;;17.23;11.50;;;;;;;6.25;64.93;101930.42;1814130;77;21135;-62
2021/10/03 04:39:09;;;;;;;19.73;13.05;;;;;;;6.19;65.18;101929.83;1813351;77;21079;-61
2021/10/03 04:41:36;;;;;;;19.02;12.47;;;;;;;6.14;65.43;101925.60;1809359;77;21041;-61
2021/10/03 04:44:03;;;;;;;20.00;12.73;;;;;;;6.13;65.50;101930.88;1808366;77;21054;-62
2021/10/03 04:46:31;;;;;;;19.55;11.75;;;;;;;6.19;65.51;101929.83;1809561;77;21093;-60
2021/10/03 04:48:57;;;;;;;22.02;12.55;;;;;;;6.30;65.50;101932.44;1808946;77;21545;-60
2021/10/03 04:51:23;;;;;;;19.10;12.53;;;;;;;6.41;65.48;101932.02;1806072;77;21168;-60
2021/10/03 04:53:50;;;;;;;15.60;11.03;;;;;;;6.51;65.51;101932.06;1797315;77;21065;-59
2021/10/03 04:56:17;;;;;;;19.20;12.73;;;;;;;6.61;65.62;101936.96;1802177;77;21151;-59
2021/10/03 04:58:43;;;;;;;17.25;11.18;;;;;;;6.66;65.74;101941.09;1808204;77;21038;-60
2021/10/03 05:01:11;;;;;;;17.00;10.60;;;;;;;6.71;65.83;101940.92;1804966;77;21901;-59
2021/10/03 05:03:39;;;;;;;17.57;11.88;;;;;;;6.78;65.90;101936.30;1817637;78;21037;-60
2021/10/03 05:06:07;;;;;;;18.80;10.80;;;;;;;6.83;65.95;101940.43;1816924;77;21022;-59
2021/10/03 05:08:35;;;;;;;16.12;12.35;;;;;;;6.90;65.97;101942.81;1813720;77;22479;-59
2021/10/03 05:11:01;;;;;;;20.17;11.28;;;;;;;6.93;66.03;101947.47;1814886;77;22637;-59
2021/10/03 05:13:29;;;;;;;17.52;12.33;;;;;;;6.94;66.11;101943.91;1807773;77;21122;-58
2021/10/03 05:15:57;;;;;;;18.23;11.10;;;;;;;6.97;66.28;101942.49;1792767;77;21108;-59
2021/10/03 05:18:25;;;;;;;17.35;10.40;;;;;;;7.05;66.39;101938.27;1812864;77;21089;-59
2021/10/03 05:20:51;;;;;;;16.10;10.13;;;;;;;7.18;66.30;101939.95;1813451;77;21030;-59
2021/10/03 05:23:18;;;;;;;18.55;10.50;;;;;;;7.32;66.29;101943.30;1817359;77;21530;-59
2021/10/03 05:25:44;;;;;;;17.35;11.68;;;;;;;7.43;66.21;101938.00;1813064;77;21136;-59
2021/10/03 05:28:11;;;;;;;18.77;11.80;;;;;;;7.51;66.43;101935.52;1791271;77;21136;-59
2021/10/03 05:30:37;;;;;;;17.65;12.00;;;;;;;7.58;66.60;101931.70;1808666;77;21054;-59
2021/10/03 05:33:04;;;;;;;19.37;11.65;;;;;;;7.68;66.43;101938.25;1815122;77;21139;-59
2021/10/03 05:35:30;;;;;;;16.42;9.08;;;;;;;7.75;66.31;101927.92;1810535;77;21069;-59
2021/10/03 05:37:57;;;;;;;13.90;8.50;;;;;;;7.80;66.27;101926.39;1799699;78;21156;-59
2021/10/03 05:40:23;;;;;;;14.47;8.68;;;;;;;7.89;66.14;101931.23;1823041;77;21018;-60
2021/10/03 05:42:51;;;;;;;13.32;7.35;;;;;;;7.96;66.02;101930.51;1820254;77;21083;-60
2021/10/03 05:45:17;;;;;;;14.93;8.43;;;;;;;8.02;65.73;101937.23;1807032;78;21049;-57
2021/10/03 05:47:44;;;;;;;16.15;7.85;;;;;;;8.06;65.60;101942.76;1779793;78;22636;-59
2021/10/03 05:50:11;;;;;;;13.88;7.62;;;;;;;8.15;65.46;101940.58;1760069;79;21220;-58
2021/10/03 05:52:38;;;;;;;12.20;6.85;;;;;;;8.31;65.34;101936.78;1757993;80;21480;-59
2021/10/03 05:55:05;;;;;;;12.33;7.67;;;;;;;8.45;65.10;101934.02;1774066;78;21052;-60
2021/10/03 05:57:32;;;;;;;15.65;8.63;;;;;;;8.60;65.28;101933.30;1773388;78;21420;-59
2021/10/03 05:59:59;;;;;;;15.70;8.38;;;;;;;8.69;65.02;101932.89;1778699;78;21088;-60
2021/10/03 06:02:25;;;;;;;14.28;8.28;;;;;;;8.77;64.86;101935.60;1771897;78;22627;-60
2021/10/03 06:04:52;;;;;;;21.70;8.08;;;;;;;8.84;64.73;101934.38;1774992;78;21077;-60
2021/10/03 06:07:18;;;;;;;14.25;8.08;;;;;;;8.88;64.53;101935.47;1775655;78;21469;-59
2021/10/03 06:09:45;;;;;;;10.98;7.25;;;;;;;8.93;64.36;101937.41;1732774;81;21069;-60
2021/10/03 06:12:11;;;;;;;12.95;7.78;;;;;;;8.98;64.03;101935.02;1752016;79;21102;-60
2021/10/03 06:14:39;;;;;;;13.45;8.33;;;;;;;9.00;63.96;101935.81;1752068;79;21091;-59
2021/10/03 06:17:07;;;;;;;13.83;8.15;;;;;;;8.99;64.13;101934.10;1751290;80;21676;-60
2021/10/03 06:19:34;;;;;;;14.13;7.80;;;;;;;9.07;64.08;101945.92;1734021;80;21936;-59
2021/10/03 06:22:02;;;;;;;14.28;8.28;;;;;;;9.20;63.98;101936.16;1771595;78;21076;-63
2021/10/03 06:24:28;;;;;;;15.18;8.43;;;;;;;9.35;64.00;101941.95;1772530;78;21677;-59
2021/10/03 06:26:55;;;;;;;14.85;9.23;;;;;;;9.44;63.99;101941.48;1747768;78;22854;-60
2021/10/03 06:29:21;;;;;;;13.98;8.50;;;;;;;9.56;63.83;101943.11;1755124;78;21136;-59
2021/10/03 06:31:47;;;;;;;17.80;9.18;;;;;;;9.65;63.76;101945.28;1780452;78;21049;-60
2021/10/03 06:34:14;;;;;;;16.05;8.98;;;;;;;9.75;63.68;101950.45;1754984;80;21084;-59
2021/10/03 06:36:40;;;;;;;13.68;8.28;;;;;;;9.81;63.35;101944.02;1750362;78;21068;-59
2021/10/03 06:39:07;;;;;;;12.07;7.22;;;;;;;9.86;63.22;101944.63;1780489;78;21139;-60
2021/10/03 06:41:34;;;;;;;12.37;8.35;;;;;;;9.88;63.25;101936.66;1778732;78;21092;-60
2021/10/03 06:44:02;;;;;;;15.75;9.93;;;;;;;9.94;63.23;101939.81;1754571;78;21002;-62
2021/10/03 06:46:29;;;;;;;17.98;9.53;;;;;;;9.98;63.18;101939.18;1780309;78;21038;-60
2021/10/03 06:48:55;;;;;;;17.23;8.85;;;;;;;10.07;62.97;101937.84;1772824;78;21032;-61
2021/10/03 06:51:22;;;;;;;12.18;8.00;;;;;;;10.21;62.82;101940.59;1752044;79;21074;-60
2021/10/03 06:53:49;;;;;;;14.10;7.67;;;;;;;10.33;62.72;101935.17;1767793;79;21140;-60
2021/10/03 06:56:16;;;;;;;15.00;9.25;;;;;;;10.44;62.51;101939.84;1764233;80;21480;-60
2021/10/03 06:58:42;;;;;;;15.78;8.65;;;;;;;10.53;62.37;101935.40;1764588;79;21568;-61
2021/10/03 07:01:09;;;;;;;14.93;8.60;;;;;;;10.63;61.98;101939.70;1780605;78;21077;-60
2021/10/03 07:03:36;;;;;;;15.23;9.10;;;;;;;10.70;61.97;101939.73;1777180;78;21137;-60
2021/10/03 07:06:03;;;;;;;12.37;8.23;;;;;;;10.75;61.90;101943.79;1783897;79;21042;-60
2021/10/03 07:08:30;;;;;;;13.55;8.25;;;;;;;10.76;61.70;101945.98;1746465;80;21048;-60
2021/10/03 07:10:56;;;;;;;14.83;8.40;;;;;;;10.80;61.75;101943.54;1760300;79;21105;-61
2021/10/03 07:13:22;;;;;;;14.78;8.68;;;;;;;10.84;61.48;101941.58;1762631;80;21466;-61
2021/10/03 07:15:48;;;;;;;14.58;9.18;;;;;;;10.87;61.11;101938.30;1763137;80;21105;-61
2021/10/03 07:18:15;;;;;;;12.93;8.00;;;;;;;10.90;60.86;101935.98;1757327;79;21066;-61
2021/10/03 07:20:42;;;;;;;12.55;7.85;;;;;;;10.97;60.79;101941.27;1757410;79;21058;-61
2021/10/03 07:23:09;;;;;;;11.90;7.10;;;;;;;11.10;60.80;101934.84;1736541;79;21872;-60
2021/10/03 07:25:36;;;;;;;14.63;7.58;;;;;;;11.24;60.70;101937.98;1747917;80;21057;-60
2021/10/03 07:28:04;;;;;;;12.63;8.08;;;;;;;11.34;60.50;101935.20;1764857;79;22245;-61
2021/10/03 07:30:31;;;;;;;15.28;9.55;;;;;;;11.44;60.17;101933.71;1766967;79;21105;-61
2021/10/03 07:32:57;;;;;;;13.90;8.43;;;;;;;11.55;60.09;101933.09;1742756;80;21041;-62
2021/10/03 07:35:23;;;;;;;16.50;8.83;;;;;;;11.57;59.74;101931.20;1767990;79;21081;-61
2021/10/03 07:37:50;;;;;;;13.58;9.23;;;;;;;11.62;59.56;101925.67;1774655;78;21073;-62
2021/10/03 07:40:16;;;;;;;13.15;8.48;;;;;;;11.69;59.49;101930.95;1768745;78;21229;-62
2021/10/03 07:42:44;;;;;;;14.75;8.80;;;;;;;11.75;59.34;101930.59;1772082;78;21089;-61
2021/10/03 07:45:10;;;;;;;12.95;8.68;;;;;;;11.80;59.06;101938.20;1748233;78;21052;-61
2021/10/03 07:47:37;;;;;;;15.48;8.53;;;;;;;11.80;58.97;101937.75;1775470;78;21065;-61
2021/10/03 07:50:05;;;;;;;14.68;8.20;;;;;;;11.82;58.83;101931.06;1775134;78;21093;-61
2021/10/03 07:52:32;;;;;;;17.85;7.80;;;;;;;11.85;58.75;101933.05;1762461;79;21099;-61
2021/10/03 07:54:58;;;;;;;14.95;8.03;;;;;;;11.89;58.91;101931.06;1763717;79;21533;-60
2021/10/03 07:57:25;;;;;;;13.30;7.53;;;;;;;11.97;58.79;101928.84;1767363;79;21084;-62
2021/10/03 07:59:52;;;;;;;13.55;6.87;;;;;;;12.12;58.78;101929.69;1756519;80;21047;-62
2021/10/03 08:02:18;;;;;;;10.55;6.75;;;;;;;12.26;58.36;101924.38;1758691;79;21042;-60
2021/10/03 08:04:44;;;;;;;11.73;6.78;;;;;;;12.41;58.32;101922.57;1769551;78;22937;-61
2021/10/03 08:07:10;;;;;;;12.75;7.05;;;;;;;12.53;57.88;101920.94;1774181;78;21730;-59
2021/10/03 08:09:38;;;;;;;13.20;7.03;;;;;;;12.62;57.31;101914.22;1772372;78;21108;-60
2021/10/03 08:12:07;;;;;;;12.15;6.95;;;;;;;12.73;56.59;101916.19;1769735;78;21104;-64
2021/10/03 08:14:33;;;;;;;12.63;6.37;;;;;;;12.82;55.93;101907.65;1778831;78;21057;-61
2021/10/03 08:17:00;;;;;;;11.38;6.53;;;;;;;12.90;55.84;101912.45;1768036;78;21069;-63
2021/10/03 08:19:29;;;;;;;9.18;6.10;;;;;;;13.00;55.55;101913.53;1776076;79;21018;-63
2021/10/03 08:21:55;;;;;;;10.28;5.87;;;;;;;13.07;55.35;101910.84;1775954;78;21049;-62
2021/10/03 08:24:23;;;;;;;10.82;5.97;;;;;;;13.15;55.45;101910.34;1761543;79;21572;-63
2021/10/03 08:26:50;;;;;;;10.45;6.42;;;;;;;13.24;55.42;101914.17;1767056;79;21066;-61
2021/10/03 08:29:17;;;;;;;11.40;6.40;;;;;;;13.31;54.99;101910.99;1759795;79;21184;-58
2021/10/03 08:31:44;;;;;;;9.20;5.47;;;;;;;13.40;54.76;101916.19;1756897;79;21660;-57
2021/10/03 08:34:10;;;;;;;9.60;5.55;;;;;;;13.46;54.62;101916.23;1731364;80;21067;-60
2021/10/03 08:36:36;;;;;;;10.23;5.12;;;;;;;13.56;54.42;101919.47;1762851;79;21562;-60
2021/10/03 08:39:03;;;;;;;9.33;5.55;;;;;;;13.62;53.40;101915.58;1759647;79;21034;-60
2021/10/03 08:41:31;;;;;;;10.82;5.35;;;;;;;13.66;53.33;101924.97;1755483;79;21569;-59
2021/10/03 08:43:57;;;;;;;9.58;5.22;;;;;;;13.70;52.38;101917.22;1759766;79;21126;-60
2021/10/03 08:46:26;;;;;;;10.13;4.75;;;;;;;13.78;52.49;101919.80;1758953;79;21090;-59
2021/10/03 08:48:53;;;;;;;9.68;5.12;;;;;;;13.85;52.34;101919.73;1755299;79;21074;-61
2021/10/03 08:51:20;;;;;;;8.43;4.87;;;;;;;13.93;52.38;101924.86;1736452;80;21058;-60
2021/10/03 08:53:46;;;;;;;8.65;4.58;;;;;;;14.03;52.00;101916.29;1736903;80;21518;-60
2021/10/03 08:56:13;;;;;;;9.15;4.75;;;;;;;14.11;51.67;101918.77;1764828;79;21051;-61
2021/10/03 08:58:40;;;;;;;12.53;5.35;;;;;;;14.21;51.38;101917.64;1768711;79;21065;-60
2021/10/03 09:01:10;;;;;;;10.85;5.00;;;;;;;14.28;50.86;101910.94;1756020;79;21050;-61
2021/10/03 09:03:35;;;;;;;8.75;4.50;;;;;;;14.37;50.04;101906.78;1733630;79;21048;-61
2021/10/03 09:06:03;;;;;;;7.75;3.60;;;;;;;14.48;49.48;101908.67;1701121;79;21965;-61
2021/10/03 09:08:33;;;;;;;8.60;3.70;;;;;;;14.55;48.40;101901.97;1762763;79;21048;-60
2021/10/03 09:11:10;;;;;;;9.98;3.62;;;;;;;14.64;47.93;101905.31;1736623;79;21073;-60
2021/10/03 09:13:40;;;;;;;7.03;3.77;;;;;;;14.75;47.62;101905.01;1733948;79;21599;-61
2021/10/03 09:16:24;;;;;;;7.20;4.45;;;;;;;14.83;47.45;101896.02;1765695;79;21093;-61
2021/10/03 09:18:56;;;;;;;13.55;4.35;;;;;;;14.95;47.54;101904.37;1765589;79;21143;-61
2021/10/03 09:21:33;;;;;;;7.20;3.62;;;;;;;15.03;46.94;101899.34;1771288;79;21026;-61
2021/10/03 09:24:08;;;;;;;7.78;3.35;;;;;;;15.13;46.43;101899.50;1743947;78;21016;-64
2021/10/03 09:26:35;;;;;;;6.17;3.05;;;;;;;15.20;45.77;101895.42;1777133;78;21009;-62
2021/10/03 09:29:29;;;;;;;7.67;3.65;;;;;;;15.29;45.22;101895.20;1769582;78;21025;-63
2021/10/03 09:32:14;;;;;;;6.78;3.45;;;;;;;15.36;44.76;101892.44;1773559;78;21081;-61
2021/10/03 09:34:49;;;;;;;6.12;3.08;;;;;;;15.45;44.37;101900.66;1744426;78;21010;-61
2021/10/03 09:37:29;;;;;;;6.50;3.00;;;;;;;15.51;43.78;101895.72;1753842;80;21689;-60
2021/10/03 09:40:13;;;;;;;8.20;4.20;;;;;;;15.58;43.61;101900.94;1767573;79;21050;-61
2021/10/03 09:42:40;;;;;;;5.97;3.17;;;;;;;15.67;44.25;101901.16;1743070;80;21106;-60
2021/10/03 09:45:14;;;;;;;8.70;3.85;;;;;;;15.78;44.73;101899.42;1761284;79;21189;-61
2021/10/03 09:47:43;;;;;;;6.55;3.30;;;;;;;15.87;45.25;101896.98;1765407;79;21065;-62
2021/10/03 09:50:13;;;;;;;6.40;3.30;;;;;;;15.98;44.07;101899.66;1763795;79;21007;-65
2021/10/03 09:52:40;;;;;;;6.62;3.00;;;;;;;16.04;42.40;101889.02;1760642;80;21521;-63
2021/10/03 09:55:10;;;;;;;9.30;3.55;;;;;;;16.11;42.10;101890.24;1767131;79;21089;-61
2021/10/03 09:57:38;;;;;;;7.45;3.60;;;;;;;16.18;41.74;101899.40;1742439;79;21105;-63
2021/10/03 10:00:06;;;;;;;7.33;3.08;;;;;;;16.24;41.70;101890.09;1770047;79;21102;-62
2021/10/03 10:02:33;;;;;;;5.87;2.55;;;;;;;16.30;42.02;101886.95;1747821;79;21060;-62
2021/10/03 10:05:01;;;;;;;5.60;2.70;;;;;;;16.35;40.86;101885.59;1767361;79;21562;-64
2021/10/03 10:07:32;;;;;;;6.28;2.70;;;;;;;16.42;39.91;101877.98;1744072;80;21675;-61
2021/10/03 10:09:59;;;;;;;4.97;2.60;;;;;;;16.49;40.03;101882.30;1743516;79;21280;-60
2021/10/03 10:12:25;;;;;;;5.45;2.55;;;;;;;16.56;39.84;101874.68;1768849;79;21080;-58
2021/10/03 10:14:59;;;;;;;7.05;3.22;;;;;;;16.62;38.83;101870.20;1775114;80;21033;-59
2021/10/03 10:17:38;;;;;;;6.12;2.95;;;;;;;16.66;39.25;101865.84;1765974;79;21145;-61
2021/10/03 10:20:27;;;;;;;8.05;4.00;;;;;;;16.74;39.68;101865.69;1774439;80;21623;-61
2021/10/03 10:22:59;;;;;;;5.72;3.55;;;;;;;16.83;39.58;101869.77;1771894;79;21834;-60
2021/10/03 10:25:47;;;;;;;8.40;3.62;;;;;;;16.90;39.08;101862.98;1773149;79;21082;-60
2021/10/03 10:28:17;;;;;;;7.97;3.55;;;;;;;16.97;39.21;101857.16;1773803;79;21066;-62
2021/10/03 10:31:20;;;;;;;6.12;3.40;;;;;;;17.03;39.28;101860.16;1745495;79;21308;-62
2021/10/03 10:33:57;;;;;;;5.97;3.65;;;;;;;17.10;39.03;101856.49;1765720;79;21064;-62
2021/10/03 10:36:50;;;;;;;6.47;3.37;;;;;;;17.14;39.06;101849.92;1744098;80;21097;-61
2021/10/03 10:39:19;;;;;;;6.58;3.60;;;;;;;17.20;39.14;101852.08;1770174;79;21006;-60
2021/10/03 10:41:53;;;;;;;7.37;3.42;;;;;;;17.25;38.94;101851.20;1769461;79;20995;-60
2021/10/03 10:44:33;;;;;;;8.28;3.50;;;;;;;17.31;39.50;101854.30;1775253;80;21401;-61
2021/10/03 10:47:14;;;;;;;6.83;3.42;;;;;;;17.37;38.94;101853.79;1765713;79;21323;-61
2021/10/03 10:49:53;;;;;;;8.00;3.00;;;;;;;17.42;39.10;101844.92;1774448;80;21180;-61
2021/10/03 10:52:25;;;;;;;6.70;3.62;;;;;;;17.48;39.21;101849.70;1767295;79;21062;-61
2021/10/03 10:55:21;;;;;;;8.08;4.22;;;;;;;17.50;39.85;101845.58;1742436;80;21153;-60
2021/10/03 10:57:57;;;;;;;8.48;3.67;;;;;;;17.55;39.53;101845.55;1767607;79;21026;-60
2021/10/03 11:00:30;;;;;;;8.38;3.67;;;;;;;17.61;39.11;101837.52;1771149;80;21038;-62
2021/10/03 11:03:04;;;;;;;8.70;4.00;;;;;;;17.68;39.61;101835.16;1773899;80;22346;-61
2021/10/03 11:05:46;;;;;;;6.08;3.80;;;;;;;17.75;39.45;101836.30;1739096;80;21410;-61
2021/10/03 11:08:16;;;;;;;7.50;3.80;;;;;;;17.80;39.25;101835.41;1767768;79;21042;-61
2021/10/03 11:11:09;;;;;;;6.22;3.72;;;;;;;17.85;38.98;101832.34;1770606;79;21144;-61
2021/10/03 11:13:55;;;;;;;7.75;3.30;;;;;;;17.87;38.96;101835.74;1768304;79;21004;-59
2021/10/03 11:16:39;;;;;;;8.60;4.15;;;;;;;17.90;38.70;101826.98;1771045;80;21152;-63
2021/10/03 11:19:13;;;;;;;8.23;3.90;;;;;;;17.97;39.42;101829.48;1769811;79;21510;-66
2021/10/03 11:21:42;;;;;;;9.00;3.50;;;;;;;18.04;39.08;101820.93;1766914;79;21118;-60
2021/10/03 11:24:11;;;;;;;7.70;3.67;;;;;;;18.11;38.97;101820.76;1758745;79;21509;-63
2021/10/03 11:26:54;;;;;;;7.33;3.15;;;;;;;18.15;38.47;101816.33;1741395;80;21740;-61
2021/10/03 11:29:30;;;;;;;8.48;4.20;;;;;;;18.22;38.66;101813.95;1741668;80;21054;-64